createdAt,value
2018-02-21T00:02:26.541Z,-1.88
2018-02-21T00:04:54.820Z,-1.89
2018-02-21T00:07:23.101Z,-1.93
2018-02-21T00:09:51.683Z,-1.92
2018-02-21T00:12:20.665Z,-1.91
2018-02-21T00:14:49.891Z,-1.92
2018-02-21T00:17:18.200Z,-1.83
2018-02-21T00:19:47.237Z,-1.82
2018-02-21T00:22:15.533Z,-1.76
2018-02-21T00:24:43.848Z,-1.76
2018-02-21T00:27:12.879Z,-1.81
2018-02-21T00:29:41.178Z,-1.90
2018-02-21T00:32:09.500Z,-1.97
2018-02-21T00:34:38.622Z,-1.98
2018-02-21T00:37:06.908Z,-2.03
2018-02-21T00:39:35.762Z,-2.05
2018-02-21T00:42:04.873Z,-2.07
2018-02-21T00:44:33.932Z,-2.08
2018-02-21T00:47:03.153Z,-2.08
2018-02-21T00:49:33.076Z,-2.03
2018-02-21T00:52:02.914Z,-1.96
2018-02-21T00:54:31.180Z,-1.89
2018-02-21T00:56:59.588Z,-1.84
2018-02-21T00:59:27.868Z,-1.89
2018-02-21T01:01:56.141Z,-1.91
2018-02-21T01:04:24.506Z,-1.94
2018-02-21T01:06:52.930Z,-1.94
2018-02-21T01:09:21.234Z,-1.96
2018-02-21T01:11:50.312Z,-1.92
2018-02-21T01:14:19.011Z,-1.97
2018-02-21T01:16:48.216Z,-2.08
2018-02-21T01:19:17.297Z,-2.06
2018-02-21T01:21:45.984Z,-2.06
2018-02-21T01:24:14.275Z,-2.16
2018-02-21T01:26:43.029Z,-2.25
2018-02-21T01:29:11.744Z,-2.40
2018-02-21T01:31:40.370Z,-2.34
2018-02-21T01:34:08.684Z,-2.33
2018-02-21T01:36:36.966Z,-2.34
2018-02-21T01:39:05.243Z,-2.23
2018-02-21T01:41:33.607Z,-2.15
2018-02-21T01:44:01.888Z,-2.15
2018-02-21T01:46:30.429Z,-2.07
2018-02-21T01:48:58.747Z,-2.13
2018-02-21T01:51:27.024Z,-2.19
2018-02-21T01:53:55.752Z,-2.17
2018-02-21T01:56:24.999Z,-2.17
2018-02-21T01:58:53.281Z,-2.15
2018-02-21T02:01:21.558Z,-2.24
2018-02-21T02:03:49.926Z,-2.28
2018-02-21T02:06:18.199Z,-2.25
2018-02-21T02:08:46.480Z,-2.15
2018-02-21T02:11:14.788Z,-2.08
2018-02-21T02:13:43.581Z,-2.09
2018-02-21T02:16:12.309Z,-2.09
2018-02-21T02:18:41.438Z,-2.06
2018-02-21T02:21:09.717Z,-2.09
2018-02-21T02:23:39.660Z,-2.04
2018-02-21T02:26:08.000Z,-1.98
2018-02-21T02:28:37.865Z,-2.01
2018-02-21T02:31:06.764Z,-2.01
2018-02-21T02:33:35.749Z,-2.05
2018-02-21T02:36:04.749Z,-1.91
2018-02-21T02:38:42.535Z,-1.92
2018-02-21T02:41:10.815Z,-1.93
2018-02-21T02:43:39.598Z,-2.06
2018-02-21T02:46:08.178Z,-2.01
2018-02-21T02:48:36.588Z,-2.04
2018-02-21T02:51:04.898Z,-2.04
2018-02-21T02:53:34.049Z,-1.99
2018-02-21T02:56:02.325Z,-2.08
2018-02-21T02:58:30.608Z,-2.16
2018-02-21T03:00:58.909Z,-2.21
2018-02-21T03:03:27.981Z,-2.15
2018-02-21T03:05:56.717Z,-2.11
2018-02-21T03:08:25.006Z,-2.19
2018-02-21T03:10:53.336Z,-2.19
2018-02-21T03:13:21.952Z,-2.31
2018-02-21T03:15:50.992Z,-2.33
2018-02-21T03:18:19.320Z,-2.39
2018-02-21T03:20:48.359Z,-2.52
2018-02-21T03:23:16.657Z,-2.62
2018-02-21T03:25:45.307Z,-2.62
2018-02-21T03:28:13.588Z,-2.58
2018-02-21T03:30:41.881Z,-2.59
2018-02-21T03:33:10.168Z,-2.64
2018-02-21T03:35:38.927Z,-2.63
2018-02-21T03:38:07.240Z,-2.62
2018-02-21T03:40:36.580Z,-2.56
2018-02-21T03:43:06.988Z,-2.60
2018-02-21T03:45:36.144Z,-2.54
2018-02-21T03:48:04.418Z,-2.40
2018-02-21T03:50:32.923Z,-2.42
2018-02-21T03:53:01.232Z,-2.43
2018-02-21T03:55:29.512Z,-2.44
2018-02-21T03:58:00.128Z,-2.42
2018-02-21T04:00:28.668Z,-2.42
2018-02-21T04:02:58.769Z,-2.39
2018-02-21T04:05:27.831Z,-2.31
2018-02-21T04:07:56.897Z,-2.27
2018-02-21T04:10:25.184Z,-2.26
2018-02-21T04:12:54.167Z,-2.22
2018-02-21T04:15:23.300Z,-2.12
2018-02-21T04:17:53.470Z,-2.08
2018-02-21T04:20:21.846Z,-2.16
2018-02-21T04:22:50.740Z,-2.20
2018-02-21T04:25:19.045Z,-2.22
2018-02-21T04:27:47.471Z,-2.31
2018-02-21T04:30:16.617Z,-2.32
2018-02-21T04:32:45.036Z,-2.29
2018-02-21T04:35:13.888Z,-2.28
2018-02-21T04:37:42.367Z,-2.25
2018-02-21T04:40:12.227Z,-2.26
2018-02-21T04:42:40.535Z,-2.22
2018-02-21T04:45:09.791Z,-2.11
2018-02-21T04:47:38.144Z,-2.12
2018-02-21T04:50:07.157Z,-2.09
2018-02-21T04:52:36.332Z,-2.01
2018-02-21T04:55:11.048Z,-2.06
2018-02-21T04:57:39.491Z,-2.09
2018-02-21T05:00:10.209Z,-2.14
2018-02-21T05:02:40.193Z,-2.17
2018-02-21T05:05:08.484Z,-2.18
2018-02-21T05:07:36.774Z,-2.18
2018-02-21T05:10:05.146Z,-2.24
2018-02-21T05:12:34.421Z,-2.16
2018-02-21T05:15:04.810Z,-2.13
2018-02-21T05:17:33.378Z,-2.25
2018-02-21T05:20:01.684Z,-2.35
2018-02-21T05:22:30.732Z,-2.39
2018-02-21T05:24:59.324Z,-2.40
2018-02-21T05:27:28.478Z,-2.45
2018-02-21T05:29:59.042Z,-2.46
2018-02-21T05:32:27.375Z,-2.47
2018-02-21T05:34:56.846Z,-2.48
2018-02-21T05:37:25.144Z,-2.48
2018-02-21T05:39:54.481Z,-2.55
2018-02-21T05:42:22.765Z,-2.59
2018-02-21T05:44:51.140Z,-2.64
2018-02-21T05:47:19.643Z,-2.62
2018-02-21T05:49:50.516Z,-2.65
2018-02-21T05:52:18.811Z,-2.67
2018-02-21T05:54:47.876Z,-2.71
2018-02-21T05:57:16.182Z,-2.76
2018-02-21T05:59:45.837Z,-2.78
2018-02-21T06:02:14.116Z,-2.78
2018-02-21T06:04:42.769Z,-2.79
2018-02-21T06:07:11.812Z,-2.81
2018-02-21T06:09:40.422Z,-2.86
2018-02-21T06:12:09.195Z,-2.83
2018-02-21T06:14:38.296Z,-2.91
2018-02-21T06:17:06.639Z,-2.91
2018-02-21T06:19:35.292Z,-3.00
2018-02-21T06:22:05.105Z,-3.11
2018-02-21T06:24:34.160Z,-3.10
2018-02-21T06:27:03.841Z,-3.12
2018-02-21T06:29:33.105Z,-3.13
2018-02-21T06:32:02.252Z,-3.10
2018-02-21T06:34:31.836Z,-3.05
2018-02-21T06:37:01.459Z,-3.02
2018-02-21T06:39:30.358Z,-2.92
2018-02-21T06:41:59.769Z,-2.91
2018-02-21T06:44:28.505Z,-2.85
2018-02-21T06:46:57.340Z,-2.72
2018-02-21T06:49:26.219Z,-2.62
2018-02-21T06:51:56.058Z,-2.55
2018-02-21T06:54:24.346Z,-2.52
2018-02-21T06:56:53.261Z,-2.52
2018-02-21T06:59:22.144Z,-2.43
2018-02-21T07:01:52.931Z,-2.44
2018-02-21T07:04:22.519Z,-2.47
2018-02-21T07:06:52.368Z,-2.50
2018-02-21T07:09:20.660Z,-2.47
2018-02-21T07:11:49.843Z,-2.44
2018-02-21T07:14:19.672Z,-2.54
2018-02-21T07:16:47.976Z,-2.53
2018-02-21T07:19:16.311Z,-2.52
2018-02-21T07:21:45.403Z,-2.55
2018-02-21T07:24:13.795Z,-2.51
2018-02-21T07:26:43.520Z,-2.47
2018-02-21T07:29:11.805Z,-2.53
2018-02-21T07:31:40.180Z,-2.48
2018-02-21T07:34:08.652Z,-2.46
2018-02-21T07:36:37.308Z,-2.26
2018-02-21T07:39:05.621Z,-2.43
2018-02-21T07:41:33.904Z,-2.36
2018-02-21T07:44:02.301Z,-2.27
2018-02-21T07:46:31.317Z,-2.14
2018-02-21T07:49:00.483Z,-2.03
2018-02-21T07:51:47.875Z,-2.00
2018-02-21T07:54:16.562Z,-1.92
2018-02-21T07:56:45.838Z,-1.83
2018-02-21T07:59:15.769Z,-1.74
2018-02-21T08:01:47.776Z,-1.76
2018-02-21T08:04:16.327Z,-1.69
2018-02-21T08:06:44.709Z,-1.49
2018-02-21T08:09:15.416Z,-1.59
2018-02-21T08:11:44.691Z,-1.56
2018-02-21T08:14:12.971Z,-1.49
2018-02-21T08:16:41.853Z,-1.40
2018-02-21T08:19:10.123Z,-1.33
2018-02-21T08:21:39.114Z,-1.23
2018-02-21T08:24:08.015Z,-1.26
2018-02-21T08:26:37.267Z,-1.26
2018-02-21T08:29:06.612Z,-1.08
2018-02-21T08:31:35.814Z,-0.96
2018-02-21T08:34:04.112Z,-0.95
2018-02-21T08:36:32.436Z,-0.78
2018-02-21T08:39:02.387Z,-0.69
2018-02-21T08:41:30.673Z,-0.62
2018-02-21T08:43:59.401Z,-0.36
2018-02-21T08:46:28.523Z,-0.24
2018-02-21T08:48:56.811Z,-0.03
2018-02-21T08:51:25.601Z,0.34
2018-02-21T08:53:54.176Z,0.33
2018-02-21T08:56:23.216Z,0.50
2018-02-21T08:58:51.484Z,0.69
2018-02-21T09:01:20.524Z,0.75
2018-02-21T09:03:49.601Z,0.77
2018-02-21T09:06:18.628Z,0.69
2018-02-21T09:08:48.338Z,0.89
2018-02-21T09:11:16.953Z,0.91
2018-02-21T09:13:46.036Z,1.02
2018-02-21T09:16:15.029Z,1.07
2018-02-21T09:18:44.531Z,1.04
2018-02-21T09:21:15.180Z,1.16
2018-02-21T09:23:43.465Z,1.13
2018-02-21T09:26:11.824Z,1.16
2018-02-21T09:28:40.153Z,1.34
2018-02-21T09:31:09.832Z,1.29
2018-02-21T09:33:39.316Z,1.31
2018-02-21T09:36:08.631Z,1.38
2018-02-21T09:38:36.964Z,1.60
2018-02-21T09:41:06.044Z,1.63
2018-02-21T09:43:35.767Z,1.67
2018-02-21T09:46:04.791Z,1.77
2018-02-21T09:48:34.303Z,1.98
2018-02-21T09:51:02.610Z,2.17
2018-02-21T09:53:31.002Z,2.17
2018-02-21T09:55:59.976Z,2.49
2018-02-21T09:58:29.665Z,2.56
2018-02-21T10:00:58.448Z,2.64
2018-02-21T10:03:26.947Z,2.73
2018-02-21T10:05:56.160Z,2.93
2018-02-21T10:08:25.477Z,2.92
2018-02-21T10:10:53.815Z,3.02
2018-02-21T10:13:23.065Z,3.17
2018-02-21T10:15:51.956Z,3.39
2018-02-21T10:18:20.809Z,3.61
2018-02-21T10:20:49.100Z,3.68
2018-02-21T10:23:17.485Z,3.47
2018-02-21T10:25:45.756Z,3.46
2018-02-21T10:28:14.154Z,3.40
2018-02-21T10:30:42.545Z,3.41
2018-02-21T10:33:11.324Z,3.59
2018-02-21T10:35:39.895Z,3.44
2018-02-21T10:38:08.863Z,3.56
2018-02-21T10:40:37.157Z,3.33
2018-02-21T10:43:05.432Z,3.51
2018-02-21T10:45:33.816Z,3.40
2018-02-21T10:48:02.174Z,3.61
2018-02-21T10:50:30.450Z,3.84
2018-02-21T10:52:59.349Z,3.87
2018-02-21T10:55:27.628Z,3.94
2018-02-21T10:57:55.994Z,3.93
2018-02-21T11:00:30.625Z,3.96
2018-02-21T11:02:58.924Z,4.19
2018-02-21T11:05:27.212Z,4.26
2018-02-21T11:07:55.820Z,4.33
2018-02-21T11:10:25.188Z,4.22
2018-02-21T11:12:53.457Z,4.39
2018-02-21T11:15:22.571Z,4.25
2018-02-21T11:17:50.954Z,4.39
2018-02-21T11:20:19.221Z,4.37
2018-02-21T11:22:47.582Z,4.44
2018-02-21T11:25:16.740Z,4.55
2018-02-21T11:27:45.032Z,4.71
2018-02-21T11:30:14.087Z,4.66
2018-02-21T11:32:42.549Z,4.63
2018-02-21T11:35:10.813Z,4.39
2018-02-21T11:37:39.084Z,4.08
2018-02-21T11:40:07.498Z,4.27
2018-02-21T11:42:36.692Z,4.15
2018-02-21T11:45:04.963Z,3.79
2018-02-21T11:47:33.356Z,4.14
2018-02-21T11:50:01.638Z,4.11
2018-02-21T11:52:29.909Z,4.35
2018-02-21T11:54:58.484Z,4.18
2018-02-21T11:57:28.008Z,4.08
2018-02-21T11:59:57.068Z,3.76
2018-02-21T12:02:26.896Z,3.86
2018-02-21T12:04:55.267Z,4.02
2018-02-21T12:07:23.785Z,3.99
2018-02-21T12:09:52.603Z,3.81
2018-02-21T12:12:21.556Z,3.73
2018-02-21T12:14:49.841Z,3.68
2018-02-21T12:17:18.101Z,3.79
2018-02-21T12:19:46.580Z,3.91
2018-02-21T12:22:14.889Z,3.85
2018-02-21T12:24:43.156Z,3.82
2018-02-21T12:27:11.723Z,3.77
2018-02-21T12:29:40.020Z,3.72
2018-02-21T12:32:21.032Z,3.97
2018-02-21T12:34:50.067Z,3.88
2018-02-21T12:37:18.339Z,3.77
2018-02-21T12:39:46.829Z,3.77
2018-02-21T12:42:15.213Z,3.67
2018-02-21T12:44:44.406Z,3.70
2018-02-21T12:47:13.042Z,3.81
2018-02-21T12:49:41.319Z,3.57
2018-02-21T12:52:09.643Z,3.37
2018-02-21T12:54:37.924Z,3.41
2018-02-21T12:57:06.781Z,3.42
2018-02-21T12:59:37.724Z,3.50
2018-02-21T13:02:07.137Z,3.81
2018-02-21T13:04:35.949Z,3.97
2018-02-21T13:07:04.327Z,3.91
2018-02-21T13:09:32.592Z,4.08
2018-02-21T13:12:01.665Z,3.90
2018-02-21T13:14:31.832Z,3.81
2018-02-21T13:17:00.105Z,3.67
2018-02-21T13:19:28.383Z,3.60
2018-02-21T13:21:57.984Z,3.87
2018-02-21T13:24:26.271Z,3.78
2018-02-21T13:26:55.242Z,3.85
2018-02-21T13:29:24.342Z,3.83
2018-02-21T13:31:53.888Z,3.88
2018-02-21T13:34:22.413Z,3.95
2018-02-21T13:36:51.544Z,4.00
2018-02-21T13:39:19.836Z,3.99
2018-02-21T13:41:48.152Z,3.75
2018-02-21T13:44:16.469Z,3.89
2018-02-21T13:46:45.496Z,3.84
2018-02-21T13:49:13.958Z,3.78
2018-02-21T13:51:42.285Z,3.78
2018-02-21T13:54:10.804Z,3.80
2018-02-21T13:56:39.071Z,3.97
2018-02-21T13:59:07.380Z,3.84
2018-02-21T14:01:35.656Z,3.90
2018-02-21T14:04:03.956Z,3.82
2018-02-21T14:06:32.320Z,3.80
2018-02-21T14:09:00.616Z,3.36
2018-02-21T14:11:28.889Z,3.47
2018-02-21T14:13:57.828Z,3.58
2018-02-21T14:16:27.172Z,3.73
2018-02-21T14:18:55.479Z,3.52
2018-02-21T14:21:24.562Z,3.72
2018-02-21T14:23:52.844Z,3.64
2018-02-21T14:26:21.562Z,3.68
2018-02-21T14:28:50.616Z,3.85
2018-02-21T14:31:19.003Z,3.62
2018-02-21T14:33:47.304Z,3.62
2018-02-21T14:36:15.600Z,3.59
2018-02-21T14:38:45.593Z,3.45
2018-02-21T14:41:13.892Z,3.41
2018-02-21T14:43:43.079Z,3.35
2018-02-21T14:46:11.441Z,3.30
2018-02-21T14:48:40.052Z,3.27
2018-02-21T14:51:09.708Z,3.24
2018-02-21T14:53:38.087Z,3.31
2018-02-21T14:56:06.789Z,3.43
2018-02-21T14:58:35.072Z,3.50
2018-02-21T15:01:03.397Z,3.49
2018-02-21T15:03:33.060Z,3.64
2018-02-21T15:06:01.348Z,3.86
2018-02-21T15:08:30.422Z,4.06
2018-02-21T15:10:58.711Z,4.15
2018-02-21T15:13:27.892Z,4.22
2018-02-21T15:15:57.150Z,4.13
2018-02-21T15:18:26.436Z,3.89
2018-02-21T15:20:54.748Z,3.98
2018-02-21T15:23:23.116Z,3.93
2018-02-21T15:25:51.569Z,4.07
2018-02-21T15:28:19.919Z,3.88
2018-02-21T15:30:48.605Z,3.79
2018-02-21T15:33:17.808Z,3.81
2018-02-21T15:35:46.089Z,3.86
2018-02-21T15:38:15.108Z,3.70
2018-02-21T15:40:43.402Z,3.56
2018-02-21T15:43:12.214Z,3.58
2018-02-21T15:45:40.722Z,3.52
2018-02-21T15:48:08.993Z,3.40
2018-02-21T15:50:37.263Z,3.48
2018-02-21T15:53:05.581Z,3.40
2018-02-21T15:55:33.944Z,3.38
2018-02-21T15:58:02.213Z,3.13
2018-02-21T16:00:30.548Z,3.09
2018-02-21T16:02:59.604Z,3.04
2018-02-21T16:05:28.298Z,2.77
2018-02-21T16:07:56.647Z,2.80
2018-02-21T16:10:25.088Z,2.70
2018-02-21T16:12:54.868Z,2.51
2018-02-21T16:15:23.157Z,2.45
2018-02-21T16:17:51.464Z,2.22
2018-02-21T16:20:20.700Z,2.09
2018-02-21T16:22:49.018Z,2.09
2018-02-21T16:25:18.713Z,1.92
2018-02-21T16:27:47.746Z,1.85
2018-02-21T16:30:17.789Z,1.71
2018-02-21T16:32:46.516Z,1.60
2018-02-21T16:35:15.730Z,1.54
2018-02-21T16:37:44.272Z,1.50
2018-02-21T16:40:12.576Z,1.38
2018-02-21T16:42:40.840Z,1.27
2018-02-21T16:45:09.713Z,1.16
2018-02-21T16:47:38.068Z,1.00
2018-02-21T16:50:07.860Z,0.84
2018-02-21T16:52:36.421Z,0.76
2018-02-21T16:55:04.711Z,0.68
2018-02-21T16:57:32.994Z,0.60
2018-02-21T17:00:02.144Z,0.53
2018-02-21T17:02:31.382Z,0.33
2018-02-21T17:05:00.102Z,0.21
2018-02-21T17:07:29.242Z,0.21
2018-02-21T17:09:58.984Z,0.51
2018-02-21T17:12:28.219Z,0.61
2018-02-21T17:14:57.361Z,0.69
2018-02-21T17:17:25.676Z,0.67
2018-02-21T17:19:54.008Z,0.70
2018-02-21T17:22:22.387Z,0.66
2018-02-21T17:24:50.750Z,0.62
2018-02-21T17:27:20.632Z,0.51
2018-02-21T17:29:49.840Z,0.38
2018-02-21T17:32:19.648Z,0.22
2018-02-21T17:34:48.912Z,0.15
2018-02-21T17:37:17.192Z,0.02
2018-02-21T17:39:45.565Z,-0.10
2018-02-21T17:42:13.832Z,-0.16
2018-02-21T17:44:42.488Z,-0.22
2018-02-21T17:47:11.544Z,-0.29
2018-02-21T17:49:39.845Z,-0.31
2018-02-21T17:52:09.468Z,-0.35
2018-02-21T17:54:39.501Z,-0.41
2018-02-21T17:57:07.778Z,-0.43
2018-02-21T17:59:37.268Z,-0.46
2018-02-21T18:02:06.808Z,-0.46
2018-02-21T18:04:35.086Z,-0.38
2018-02-21T18:07:03.376Z,-0.30
2018-02-21T18:09:31.677Z,-0.25
2018-02-21T18:12:00.728Z,-0.37
2018-02-21T18:14:29.029Z,-0.47
2018-02-21T18:16:58.228Z,-0.53
2018-02-21T18:19:26.608Z,-0.54
2018-02-21T18:21:54.904Z,-0.58
2018-02-21T18:24:24.983Z,-0.61
2018-02-21T18:26:53.309Z,-0.60
2018-02-21T18:29:21.587Z,-0.65
2018-02-21T18:31:50.748Z,-0.64
2018-02-21T18:34:19.062Z,-0.72
2018-02-21T18:36:48.135Z,-0.70
2018-02-21T18:39:17.244Z,-0.57
2018-02-21T18:41:45.593Z,-0.46
2018-02-21T18:44:13.890Z,-0.44
2018-02-21T18:46:42.285Z,-0.41
2018-02-21T18:49:10.600Z,-0.40
2018-02-21T18:51:39.647Z,-0.40
2018-02-21T18:54:08.037Z,-0.30
2018-02-21T18:56:37.227Z,-0.25
2018-02-21T18:59:06.015Z,-0.37
2018-02-21T19:01:34.290Z,-0.44
2018-02-21T19:04:02.673Z,-0.35
2018-02-21T19:06:30.952Z,-0.37
2018-02-21T19:08:59.358Z,-0.37
2018-02-21T19:11:28.097Z,-0.40
2018-02-21T19:13:56.420Z,-0.41
2018-02-21T19:16:27.243Z,-0.33
2018-02-21T19:18:59.983Z,-0.39
2018-02-21T19:21:28.268Z,-0.46
2018-02-21T19:23:57.058Z,-0.55
2018-02-21T19:26:25.351Z,-0.66
2018-02-21T19:28:54.816Z,-0.78
2018-02-21T19:31:24.251Z,-0.86
2018-02-21T19:33:53.444Z,-0.91
2018-02-21T19:36:21.720Z,-0.90
2018-02-21T19:38:50.308Z,-0.89
2018-02-21T19:41:19.508Z,-0.87
2018-02-21T19:43:49.596Z,-0.81
2018-02-21T19:46:18.744Z,-0.74
2018-02-21T19:48:47.104Z,-0.72
2018-02-21T19:51:15.451Z,-0.76
2018-02-21T19:53:44.526Z,-0.73
2018-02-21T19:56:13.214Z,-0.77
2018-02-21T19:58:42.237Z,-0.76
2018-02-21T20:01:11.703Z,-0.75
2018-02-21T20:03:40.035Z,-0.72
2018-02-21T20:06:08.318Z,-0.76
2018-02-21T20:08:36.625Z,-0.79
2018-02-21T20:11:05.987Z,-0.83
2018-02-21T20:13:35.050Z,-0.86
2018-02-21T20:16:03.354Z,-0.88
2018-02-21T20:18:32.482Z,-0.95
2018-02-21T20:21:01.129Z,-1.01
2018-02-21T20:23:31.252Z,-1.08
2018-02-21T20:26:00.678Z,-1.17
2018-02-21T20:28:29.487Z,-1.12
2018-02-21T20:30:58.837Z,-1.14
2018-02-21T20:33:27.528Z,-1.17
2018-02-21T20:35:55.801Z,-1.16
2018-02-21T20:38:24.655Z,-1.15
2018-02-21T20:40:53.736Z,-1.19
2018-02-21T20:43:22.113Z,-1.25
2018-02-21T20:45:50.548Z,-1.31
2018-02-21T20:48:19.584Z,-1.33
2018-02-21T20:50:47.998Z,-1.36
2018-02-21T20:53:16.404Z,-1.38
2018-02-21T20:55:44.986Z,-1.39
2018-02-21T20:58:13.621Z,-1.45
2018-02-21T21:00:43.516Z,-1.44
2018-02-21T21:03:12.589Z,-1.47
2018-02-21T21:05:40.891Z,-1.50
2018-02-21T21:08:09.205Z,-1.56
2018-02-21T21:10:38.972Z,-1.55
2018-02-21T21:13:08.660Z,-1.57
2018-02-21T21:15:37.264Z,-1.63
2018-02-21T21:18:07.756Z,-1.63
2018-02-21T21:20:36.051Z,-1.48
2018-02-21T21:23:05.540Z,-1.35
2018-02-21T21:25:34.008Z,-1.35
2018-02-21T21:28:03.105Z,-1.42
2018-02-21T21:30:32.116Z,-1.47
2018-02-21T21:33:00.433Z,-1.53
2018-02-21T21:35:30.095Z,-1.62
2018-02-21T21:37:58.452Z,-1.62
2018-02-21T21:40:27.472Z,-1.63
2018-02-21T21:42:55.752Z,-1.69
2018-02-21T21:45:24.112Z,-1.77
2018-02-21T21:47:53.560Z,-1.82
2018-02-21T21:50:21.842Z,-1.81
2018-02-21T21:52:50.214Z,-1.75
2018-02-21T21:55:19.078Z,-1.78
2018-02-21T21:57:47.364Z,-1.75
2018-02-21T22:00:16.148Z,-1.80
2018-02-21T22:02:44.434Z,-1.82
2018-02-21T22:05:12.728Z,-1.87
2018-02-21T22:07:41.196Z,-1.90
2018-02-21T22:10:09.773Z,-1.90
2018-02-21T22:12:38.077Z,-1.91
2018-02-21T22:15:06.382Z,-1.93
2018-02-21T22:17:36.161Z,-1.94
2018-02-21T22:20:04.865Z,-1.96
2018-02-21T22:22:33.183Z,-2.04
2018-02-21T22:25:01.637Z,-2.07
2018-02-21T22:27:31.088Z,-1.92
2018-02-21T22:29:59.395Z,-1.73
2018-02-21T22:32:27.688Z,-1.67
2018-02-21T22:34:55.984Z,-1.58
2018-02-21T22:37:25.045Z,-1.53
2018-02-21T22:39:53.730Z,-1.56
2018-02-21T22:42:22.648Z,-1.64
2018-02-21T22:44:52.641Z,-1.76
2018-02-21T22:47:22.011Z,-1.83
2018-02-21T22:49:51.018Z,-1.92
2018-02-21T22:52:19.830Z,-1.95
2018-02-21T22:54:48.138Z,-1.97
2018-02-21T22:57:17.280Z,-2.04
2018-02-21T22:59:45.869Z,-1.99
2018-02-21T23:02:14.165Z,-1.95
2018-02-21T23:04:42.447Z,-1.92
2018-02-21T23:07:10.804Z,-1.89
2018-02-21T23:09:39.112Z,-1.88
2018-02-21T23:12:07.796Z,-1.84
2018-02-21T23:14:36.062Z,-1.85
2018-02-21T23:17:04.953Z,-1.84
2018-02-21T23:19:33.720Z,-1.83
2018-02-21T23:22:02.704Z,-1.82
2018-02-21T23:24:31.544Z,-1.78
2018-02-21T23:26:59.861Z,-1.78
2018-02-21T23:29:28.888Z,-1.79
2018-02-21T23:31:57.176Z,-1.80
2018-02-21T23:34:25.480Z,-1.80
2018-02-21T23:36:55.904Z,-1.74
2018-02-21T23:39:24.737Z,-1.70
2018-02-21T23:41:53.702Z,-1.68
2018-02-21T23:44:23.357Z,-1.71
2018-02-21T23:46:51.717Z,-1.70
2018-02-21T23:49:20.003Z,-1.65
2018-02-21T23:51:48.582Z,-1.62
2018-02-21T23:54:18.110Z,-1.53
2018-02-21T23:56:46.648Z,-1.47
2018-02-21T23:59:15.708Z,-1.41
